createdAt,value
2019-05-02T00:01:46.793Z,100.00
2019-05-02T00:04:19.967Z,100.00
2019-05-02T00:06:46.905Z,100.00
2019-05-02T00:09:15.266Z,100.00
2019-05-02T00:11:43.563Z,100.00
2019-05-02T00:14:12.409Z,100.00
2019-05-02T00:16:45.109Z,100.00
2019-05-02T00:19:14.018Z,100.00
2019-05-02T00:21:43.097Z,100.00
2019-05-02T00:24:12.584Z,100.00
2019-05-02T00:26:40.894Z,100.00
2019-05-02T00:29:09.256Z,100.00
2019-05-02T00:31:37.668Z,100.00
2019-05-02T00:34:06.222Z,100.00
2019-05-02T00:36:34.512Z,100.00
2019-05-02T00:39:02.993Z,100.00
2019-05-02T00:41:33.207Z,100.00
2019-05-02T00:44:06.010Z,100.00
2019-05-02T00:46:35.022Z,100.00
2019-05-02T00:49:02.942Z,100.00
2019-05-02T00:51:31.355Z,100.00
2019-05-02T00:53:59.690Z,100.00
2019-05-02T00:56:28.069Z,100.00
2019-05-02T00:58:56.452Z,100.00
2019-05-02T01:01:29.786Z,100.00
2019-05-02T01:04:06.343Z,100.00
2019-05-02T01:06:35.225Z,100.00
2019-05-02T01:09:05.867Z,100.00
2019-05-02T01:11:33.623Z,100.00
2019-05-02T01:14:01.922Z,100.00
2019-05-02T01:16:30.293Z,100.00
2019-05-02T01:18:58.627Z,100.00
2019-05-02T01:21:26.938Z,100.00
2019-05-02T01:23:58.969Z,100.00
2019-05-02T01:26:29.277Z,100.00
2019-05-02T01:28:58.742Z,100.00
2019-05-02T01:31:31.445Z,100.00
2019-05-02T01:34:01.390Z,100.00
2019-05-02T01:36:32.007Z,100.00
2019-05-02T01:39:02.896Z,100.00
2019-05-02T01:41:31.158Z,100.00
2019-05-02T01:44:01.516Z,100.00
2019-05-02T01:46:29.764Z,100.00
2019-05-02T01:48:58.339Z,100.00
2019-05-02T01:51:26.760Z,100.00
2019-05-02T01:53:55.050Z,100.00
2019-05-02T01:56:23.335Z,100.00
2019-05-02T01:58:52.907Z,100.00
2019-05-02T02:01:23.337Z,100.00
2019-05-02T02:03:51.779Z,100.00
2019-05-02T02:06:20.168Z,100.00
2019-05-02T02:08:48.554Z,100.00
2019-05-02T02:11:16.861Z,100.00
2019-05-02T02:13:45.151Z,100.00
2019-05-02T02:16:13.468Z,100.00
2019-05-02T02:18:43.397Z,100.00
2019-05-02T02:21:19.982Z,100.00
2019-05-02T02:23:59.823Z,100.00
2019-05-02T02:26:28.340Z,100.00
2019-05-02T02:28:56.851Z,100.00
2019-05-02T02:31:25.183Z,100.00
2019-05-02T02:33:53.551Z,100.00
2019-05-02T02:36:30.964Z,100.00
2019-05-02T02:38:52.306Z,100.00
2019-05-02T02:41:20.621Z,100.00
2019-05-02T02:44:09.000Z,100.00
2019-05-02T02:46:40.127Z,100.00
2019-05-02T02:49:14.283Z,100.00
2019-05-02T02:51:38.676Z,100.00
2019-05-02T02:54:10.005Z,100.00
2019-05-02T02:56:40.644Z,100.00
2019-05-02T02:59:08.370Z,100.00
2019-05-02T03:01:36.717Z,100.00
2019-05-02T03:04:09.522Z,100.00
2019-05-02T03:06:38.455Z,100.00
2019-05-02T03:09:06.539Z,100.00
2019-05-02T03:11:36.475Z,100.00
2019-05-02T03:14:12.371Z,100.00
2019-05-02T03:16:47.472Z,100.00
2019-05-02T03:19:14.857Z,100.00
2019-05-02T03:21:43.465Z,100.00
2019-05-02T03:24:11.837Z,100.00
2019-05-02T03:26:40.725Z,100.00
2019-05-02T03:29:09.012Z,100.00
2019-05-02T03:31:37.294Z,100.00
2019-05-02T03:34:05.709Z,100.00
2019-05-02T03:36:36.066Z,100.00
2019-05-02T03:39:13.481Z,100.00
2019-05-02T03:41:36.523Z,100.00
2019-05-02T03:44:11.405Z,100.00
2019-05-02T03:46:34.901Z,100.00
2019-05-02T03:49:07.078Z,100.00
2019-05-02T03:51:33.416Z,100.00
2019-05-02T03:54:07.414Z,100.00
2019-05-02T03:56:32.140Z,100.00
2019-05-02T03:59:00.434Z,100.00
2019-05-02T04:01:34.825Z,100.00
2019-05-02T04:03:58.851Z,100.00
2019-05-02T04:06:27.224Z,100.00
2019-05-02T04:09:00.034Z,100.00
2019-05-02T04:11:25.800Z,100.00
2019-05-02T04:13:54.444Z,100.00
2019-05-02T04:16:23.262Z,100.00
2019-05-02T04:18:55.605Z,100.00
2019-05-02T04:21:25.946Z,100.00
2019-05-02T04:23:52.478Z,100.00
2019-05-02T04:26:20.759Z,100.00
2019-05-02T04:28:51.559Z,100.00
2019-05-02T04:31:24.958Z,100.00
2019-05-02T04:33:49.190Z,100.00
2019-05-02T04:36:18.003Z,100.00
2019-05-02T04:38:48.774Z,100.00
2019-05-02T04:41:18.828Z,100.00
2019-05-02T04:43:54.622Z,100.00
2019-05-02T04:46:22.033Z,100.00
2019-05-02T04:48:49.770Z,100.00
2019-05-02T04:51:20.223Z,100.00
2019-05-02T04:53:49.567Z,100.00
2019-05-02T04:56:18.523Z,100.00
2019-05-02T04:58:49.501Z,100.00
2019-05-02T05:01:17.457Z,100.00
2019-05-02T05:03:49.204Z,100.00
2019-05-02T05:06:18.775Z,100.00
2019-05-02T05:08:48.224Z,100.00
2019-05-02T05:11:20.897Z,100.00
2019-05-02T05:13:47.967Z,100.00
2019-05-02T05:16:18.488Z,100.00
2019-05-02T05:18:49.483Z,100.00
2019-05-02T05:21:17.857Z,100.00
2019-05-02T05:23:51.665Z,100.00
2019-05-02T05:26:18.400Z,100.00
2019-05-02T05:28:47.624Z,100.00
2019-05-02T05:31:23.681Z,100.00
2019-05-02T05:33:47.870Z,100.00
2019-05-02T05:36:19.758Z,100.00
2019-05-02T05:38:47.863Z,100.00
2019-05-02T05:41:21.155Z,100.00
2019-05-02T05:43:49.970Z,100.00
2019-05-02T05:46:17.817Z,100.00
2019-05-02T05:48:47.701Z,100.00
2019-05-02T05:51:20.401Z,100.00
2019-05-02T05:53:47.869Z,100.00
2019-05-02T05:56:18.025Z,100.00
2019-05-02T05:58:48.136Z,100.00
2019-05-02T06:01:17.691Z,100.00
2019-05-02T06:03:47.422Z,100.00
2019-05-02T06:06:22.778Z,100.00
2019-05-02T06:08:49.231Z,100.00
2019-05-02T06:11:20.227Z,100.00
2019-05-02T06:13:48.829Z,100.00
2019-05-02T06:16:16.707Z,100.00
2019-05-02T06:18:45.033Z,100.00
2019-05-02T06:21:13.322Z,100.00
2019-05-02T06:23:42.206Z,100.00
2019-05-02T06:26:13.663Z,100.00
2019-05-02T06:28:41.748Z,100.00
2019-05-02T06:31:10.562Z,100.00
2019-05-02T06:33:38.954Z,100.00
2019-05-02T06:36:07.268Z,100.00
2019-05-02T06:38:35.745Z,100.00
2019-05-02T06:41:04.050Z,100.00
2019-05-02T06:43:32.369Z,100.00
2019-05-02T06:46:00.787Z,100.00
2019-05-02T06:48:29.104Z,100.00
2019-05-02T06:50:57.488Z,100.00
2019-05-02T06:53:25.805Z,100.00
2019-05-02T06:55:54.286Z,100.00
2019-05-02T06:58:22.880Z,100.00
2019-05-02T07:00:58.322Z,100.00
2019-05-02T07:03:21.320Z,100.00
2019-05-02T07:05:49.645Z,100.00
2019-05-02T07:08:18.017Z,100.00
2019-05-02T07:10:46.435Z,100.00
2019-05-02T07:13:15.425Z,100.00
2019-05-02T07:16:02.363Z,100.00
2019-05-02T07:18:32.338Z,100.00
2019-05-02T07:21:01.397Z,100.00
2019-05-02T07:23:29.793Z,100.00
2019-05-02T07:26:00.261Z,100.00
2019-05-02T07:28:28.320Z,100.00
2019-05-02T07:30:57.558Z,100.00
2019-05-02T07:33:25.858Z,100.00
2019-05-02T07:35:55.191Z,100.00
2019-05-02T07:38:25.594Z,100.00
2019-05-02T07:40:54.317Z,100.00
2019-05-02T07:43:22.658Z,100.00
2019-05-02T07:45:50.977Z,100.00
2019-05-02T07:48:19.405Z,100.00
2019-05-02T07:50:48.171Z,100.00
2019-05-02T07:53:16.560Z,100.00
2019-05-02T07:55:45.013Z,100.00
2019-05-02T07:58:13.365Z,100.00
2019-05-02T08:00:41.653Z,100.00
2019-05-02T08:03:09.992Z,100.00
2019-05-02T08:05:38.408Z,100.00
2019-05-02T08:08:06.826Z,100.00
2019-05-02T08:10:35.117Z,100.00
2019-05-02T08:13:03.559Z,100.00
2019-05-02T08:15:32.628Z,100.00
2019-05-02T08:18:00.929Z,100.00
2019-05-02T08:20:29.239Z,100.00
2019-05-02T08:22:57.543Z,100.00
2019-05-02T08:25:25.955Z,100.00
2019-05-02T08:27:58.606Z,100.00
2019-05-02T08:30:28.616Z,100.00
2019-05-02T08:32:56.999Z,100.00
2019-05-02T08:35:28.047Z,100.00
2019-05-02T08:37:56.098Z,100.00
2019-05-02T08:40:24.759Z,100.00
2019-05-02T08:42:53.052Z,100.00
2019-05-02T08:45:21.514Z,100.00
2019-05-02T08:47:49.823Z,100.00
2019-05-02T08:50:18.117Z,100.00
2019-05-02T08:52:48.165Z,100.00
2019-05-02T08:55:16.825Z,100.00
2019-05-02T08:57:45.791Z,100.00
2019-05-02T09:00:14.312Z,100.00
2019-05-02T09:02:42.681Z,100.00
2019-05-02T09:05:11.040Z,100.00
2019-05-02T09:07:42.674Z,100.00
2019-05-02T09:10:09.398Z,100.00
2019-05-02T09:12:42.031Z,100.00
2019-05-02T09:15:07.765Z,100.00
2019-05-02T09:17:38.899Z,100.00
2019-05-02T09:20:16.650Z,100.00
2019-05-02T09:22:41.849Z,100.00
2019-05-02T09:25:12.471Z,100.00
2019-05-02T09:27:42.024Z,100.00
2019-05-02T09:30:12.193Z,100.00
2019-05-02T09:32:41.925Z,100.00
2019-05-02T09:35:11.689Z,100.00
2019-05-02T09:37:41.865Z,100.00
2019-05-02T09:40:14.993Z,100.00
2019-05-02T09:42:42.777Z,100.00
2019-05-02T09:45:15.954Z,100.00
2019-05-02T09:47:56.708Z,100.00
2019-05-02T09:50:29.467Z,100.00
2019-05-02T09:52:49.037Z,100.00
2019-05-02T09:55:17.399Z,100.00
2019-05-02T09:57:45.811Z,100.00
2019-05-02T10:00:22.119Z,100.00
2019-05-02T10:02:52.302Z,100.00
2019-05-02T10:05:20.669Z,100.00
2019-05-02T10:07:49.013Z,100.00
2019-05-02T10:10:17.675Z,100.00
2019-05-02T10:12:45.990Z,100.00
2019-05-02T10:15:14.346Z,100.00
2019-05-02T10:17:46.662Z,100.00
2019-05-02T10:20:12.795Z,100.00
2019-05-02T10:22:41.924Z,100.00
2019-05-02T10:25:11.814Z,100.00
2019-05-02T10:27:46.043Z,100.00
2019-05-02T10:30:13.422Z,100.00
2019-05-02T10:32:42.612Z,100.00
2019-05-02T10:35:12.929Z,100.00
2019-05-02T10:37:43.059Z,100.00
2019-05-02T10:40:13.451Z,100.00
2019-05-02T10:42:41.977Z,100.00
2019-05-02T10:45:13.049Z,100.00
2019-05-02T10:47:42.253Z,100.00
2019-05-02T10:50:12.461Z,100.00
2019-05-02T10:52:42.510Z,100.00
2019-05-02T10:55:12.775Z,100.00
2019-05-02T10:57:43.075Z,100.00
2019-05-02T11:00:16.524Z,100.00
2019-05-02T11:02:55.866Z,100.00
2019-05-02T11:05:26.753Z,100.00
2019-05-02T11:07:56.842Z,100.00
2019-05-02T11:10:25.226Z,100.00
2019-05-02T11:13:04.794Z,100.00
2019-05-02T11:15:52.481Z,100.00
2019-05-02T11:18:38.797Z,100.00
2019-05-02T11:20:52.870Z,100.00
2019-05-02T11:23:22.086Z,100.00
2019-05-02T11:25:52.506Z,100.00
2019-05-02T11:28:21.994Z,100.00
2019-05-02T11:30:52.435Z,100.00
2019-05-02T11:33:22.837Z,100.00
2019-05-02T11:35:53.066Z,100.00
2019-05-02T11:38:40.470Z,100.00
2019-05-02T11:40:52.233Z,100.00
2019-05-02T11:43:22.293Z,100.00
2019-05-02T11:45:54.421Z,100.00
2019-05-02T11:48:22.630Z,100.00
2019-05-02T11:50:52.433Z,100.00
2019-05-02T11:53:28.481Z,100.00
2019-05-02T11:55:53.041Z,100.00
2019-05-02T11:58:22.959Z,100.00
2019-05-02T12:00:52.278Z,100.00
2019-05-02T12:03:35.472Z,100.00
2019-05-02T12:06:02.038Z,100.00
2019-05-02T12:08:31.918Z,100.00
2019-05-02T12:11:01.964Z,100.00
2019-05-02T12:13:32.236Z,100.00
2019-05-02T12:16:02.600Z,100.00
2019-05-02T12:18:32.544Z,100.00
2019-05-02T12:21:02.585Z,100.00
2019-05-02T12:23:32.064Z,100.00
2019-05-02T12:26:02.667Z,100.00
2019-05-02T12:28:32.369Z,100.00
2019-05-02T12:31:02.760Z,100.00
2019-05-02T12:33:32.498Z,100.00
2019-05-02T12:36:02.630Z,100.00
2019-05-02T12:38:32.415Z,100.00
2019-05-02T12:41:02.573Z,100.00
2019-05-02T12:43:31.903Z,100.00
2019-05-02T12:46:02.158Z,100.00
2019-05-02T12:48:32.686Z,100.00
2019-05-02T12:51:01.950Z,100.00
2019-05-02T12:53:32.524Z,100.00
2019-05-02T12:56:02.190Z,100.00
2019-05-02T12:58:32.495Z,100.00
2019-05-02T13:01:02.691Z,100.00
2019-05-02T13:03:38.529Z,100.00
2019-05-02T13:06:06.927Z,100.00
2019-05-02T13:08:36.864Z,100.00
2019-05-02T13:11:07.107Z,100.00
2019-05-02T13:13:35.362Z,100.00
2019-05-02T13:16:04.018Z,100.00
2019-05-02T13:18:36.926Z,100.00
2019-05-02T13:21:08.186Z,100.00
2019-05-02T13:23:42.558Z,100.00
2019-05-02T13:26:19.651Z,100.00
2019-05-02T13:28:42.364Z,100.00
2019-05-02T13:31:12.862Z,100.00
2019-05-02T13:33:45.757Z,100.00
2019-05-02T13:36:43.572Z,100.00
2019-05-02T13:39:15.343Z,100.00
2019-05-02T13:41:43.636Z,100.00
2019-05-02T13:44:13.765Z,100.00
2019-05-02T13:46:42.194Z,100.00
2019-05-02T13:49:12.659Z,100.00
2019-05-02T13:51:42.487Z,100.00
2019-05-02T13:54:12.568Z,100.00
2019-05-02T13:56:45.333Z,100.00
2019-05-02T13:59:14.242Z,100.00
2019-05-02T14:01:42.867Z,100.00
2019-05-02T14:04:14.753Z,100.00
2019-05-02T14:06:42.106Z,100.00
2019-05-02T14:09:32.208Z,100.00
2019-05-02T14:12:03.816Z,100.00
2019-05-02T14:14:32.675Z,100.00
2019-05-02T14:17:03.013Z,100.00
2019-05-02T14:19:31.935Z,100.00
2019-05-02T14:22:00.298Z,100.00
2019-05-02T14:24:28.709Z,100.00
2019-05-02T14:26:57.056Z,100.00
2019-05-02T14:29:25.348Z,100.00
2019-05-02T14:31:53.666Z,100.00
2019-05-02T14:34:29.728Z,100.00
2019-05-02T14:36:59.540Z,100.00
2019-05-02T14:39:28.581Z,100.00
2019-05-02T14:41:56.884Z,100.00
2019-05-02T14:44:33.357Z,100.00
2019-05-02T14:46:56.086Z,100.00
2019-05-02T14:49:25.616Z,100.00
2019-05-02T14:51:57.252Z,100.00
2019-05-02T14:54:24.409Z,100.00
2019-05-02T14:57:06.352Z,100.00
2019-05-02T14:59:37.783Z,100.00
2019-05-02T15:02:07.894Z,100.00
2019-05-02T15:04:38.422Z,100.00
2019-05-02T15:07:06.968Z,100.00
2019-05-02T15:09:36.314Z,100.00
2019-05-02T15:12:13.551Z,100.00
2019-05-02T15:14:35.079Z,100.00
2019-05-02T15:17:03.614Z,97.71
2019-05-02T15:19:35.002Z,92.43
2019-05-02T15:22:03.394Z,92.10
2019-05-02T15:24:37.610Z,92.24
2019-05-02T15:27:10.975Z,91.90
2019-05-02T15:29:32.297Z,94.16
2019-05-02T15:32:07.261Z,91.38
2019-05-02T15:34:46.310Z,91.17
2019-05-02T15:37:06.600Z,91.42
2019-05-02T15:42:05.411Z,91.03
2019-05-02T15:44:33.688Z,89.59
2019-05-02T15:47:05.183Z,88.15
2019-05-02T15:49:36.566Z,89.86
2019-05-02T15:52:06.295Z,89.33
2019-05-02T15:54:34.580Z,89.36
2019-05-02T15:57:05.706Z,86.69
2019-05-02T15:59:44.879Z,86.91
2019-05-02T16:02:06.084Z,87.48
2019-05-02T16:04:41.758Z,86.31
2019-05-02T16:07:12.214Z,86.94
2019-05-02T16:09:41.647Z,88.66
2019-05-02T16:12:12.034Z,90.69
2019-05-02T16:14:42.528Z,91.81
2019-05-02T16:17:12.259Z,92.40
2019-05-02T16:19:42.599Z,93.46
2019-05-02T16:22:12.737Z,95.56
2019-05-02T16:24:51.410Z,96.12
2019-05-02T16:27:49.549Z,94.35
2019-05-02T16:30:19.637Z,94.93
2019-05-02T16:32:58.720Z,96.09
2019-05-02T16:35:28.763Z,93.16
2019-05-02T16:37:57.044Z,92.07
2019-05-02T16:40:29.935Z,91.76
2019-05-02T16:42:55.508Z,92.04
2019-05-02T16:45:28.485Z,93.82
2019-05-02T16:47:58.914Z,93.96
2019-05-02T16:50:27.522Z,95.72
2019-05-02T16:52:59.871Z,95.29
2019-05-02T16:55:28.151Z,95.17
2019-05-02T16:58:01.439Z,94.43
2019-05-02T17:00:26.623Z,93.86
2019-05-02T17:02:55.112Z,93.68
2019-05-02T17:05:23.426Z,95.12
2019-05-02T17:07:59.321Z,93.65
2019-05-02T17:10:29.268Z,92.83
2019-05-02T17:13:00.368Z,95.13
2019-05-02T17:15:31.277Z,95.94
2019-05-02T17:18:04.887Z,96.07
2019-05-02T17:20:31.827Z,96.52
2019-05-02T17:23:03.302Z,96.74
2019-05-02T17:25:32.228Z,95.78
2019-05-02T17:28:05.920Z,97.08
2019-05-02T17:30:38.671Z,98.52
2019-05-02T17:33:01.907Z,100.00
2019-05-02T17:35:32.420Z,100.00
2019-05-02T17:38:02.392Z,100.00
2019-05-02T17:40:30.663Z,100.00
2019-05-02T17:43:02.847Z,100.00
2019-05-02T17:45:33.344Z,100.00
2019-05-02T17:47:59.227Z,100.00
2019-05-02T17:50:37.780Z,100.00
2019-05-02T17:53:07.944Z,100.00
2019-05-02T17:55:40.285Z,100.00
2019-05-02T17:58:12.400Z,100.00
2019-05-02T18:00:37.898Z,100.00
2019-05-02T18:03:06.270Z,100.00
2019-05-02T18:05:35.913Z,100.00
2019-05-02T18:08:06.082Z,100.00
2019-05-02T18:10:35.663Z,100.00
2019-05-02T18:13:04.382Z,100.00
2019-05-02T18:15:34.916Z,100.00
2019-05-02T18:18:06.464Z,100.00
2019-05-02T18:20:37.188Z,100.00
2019-05-02T18:23:05.750Z,100.00
2019-05-02T18:25:33.479Z,100.00
2019-05-02T18:28:02.390Z,100.00
2019-05-02T18:30:31.037Z,100.00
2019-05-02T18:33:05.264Z,100.00
2019-05-02T18:35:29.632Z,100.00
2019-05-02T18:37:57.926Z,100.00
2019-05-02T18:40:29.404Z,100.00
2019-05-02T18:43:00.888Z,100.00
2019-05-02T18:45:28.654Z,100.00
2019-05-02T18:48:02.291Z,100.00
2019-05-02T18:50:44.409Z,100.00
2019-05-02T18:53:08.836Z,100.00
2019-05-02T18:55:37.147Z,100.00
2019-05-02T18:58:05.818Z,100.00
2019-05-02T19:00:38.316Z,100.00
2019-05-02T19:03:07.550Z,100.00
2019-05-02T19:05:35.407Z,100.00
2019-05-02T19:08:03.761Z,100.00
2019-05-02T19:10:32.452Z,100.00
2019-05-02T19:13:04.420Z,100.00
2019-05-02T19:15:34.083Z,100.00
2019-05-02T19:18:02.596Z,100.00
2019-05-02T19:20:37.142Z,100.00
2019-05-02T19:23:05.432Z,100.00
2019-05-02T19:25:33.718Z,100.00
2019-05-02T19:28:09.810Z,100.00
2019-05-02T19:30:39.962Z,100.00
2019-05-02T19:33:08.437Z,100.00
2019-05-02T19:35:37.631Z,100.00
2019-05-02T19:38:06.868Z,100.00
2019-05-02T19:40:35.163Z,100.00
2019-05-02T19:43:07.724Z,100.00
2019-05-02T19:45:33.719Z,100.00
2019-05-02T19:48:02.748Z,100.00
2019-05-02T19:50:43.142Z,100.00
2019-05-02T19:53:14.863Z,100.00
2019-05-02T19:55:37.218Z,100.00
2019-05-02T19:58:08.486Z,100.00
2019-05-02T20:00:42.257Z,100.00
2019-05-02T20:03:06.855Z,100.00
2019-05-02T20:05:35.169Z,100.00
2019-05-02T20:08:04.433Z,100.00
2019-05-02T20:10:32.808Z,100.00
2019-05-02T20:13:03.122Z,100.00
2019-05-02T20:15:32.936Z,100.00
2019-05-02T20:18:04.624Z,100.00
2019-05-02T20:20:56.586Z,100.00
2019-05-02T20:23:31.517Z,100.00
2019-05-02T20:25:55.125Z,100.00
2019-05-02T20:28:23.626Z,100.00
2019-05-02T20:30:53.591Z,100.00
2019-05-02T20:33:22.327Z,100.00
2019-05-02T20:35:52.895Z,100.00
2019-05-02T20:38:21.980Z,100.00
2019-05-02T20:40:52.255Z,100.00
2019-05-02T20:43:22.610Z,100.00
2019-05-02T20:45:52.838Z,100.00
2019-05-02T20:48:22.792Z,100.00
2019-05-02T20:50:51.942Z,100.00
2019-05-02T20:53:30.747Z,100.00
2019-05-02T20:55:52.428Z,100.00
2019-05-02T20:58:22.165Z,100.00
2019-05-02T21:01:05.091Z,100.00
2019-05-02T21:03:20.734Z,100.00
2019-05-02T21:06:05.702Z,100.00
2019-05-02T21:08:52.585Z,100.00
2019-05-02T21:11:21.260Z,100.00
2019-05-02T21:13:49.567Z,100.00
2019-05-02T21:16:18.006Z,100.00
2019-05-02T21:18:46.354Z,100.00
2019-05-02T21:21:14.707Z,100.00
2019-05-02T21:23:47.325Z,100.00
2019-05-02T21:26:13.552Z,100.00
2019-05-02T21:28:42.802Z,100.00
2019-05-02T21:31:12.130Z,100.00
2019-05-02T21:33:42.538Z,100.00
2019-05-02T21:36:11.953Z,100.00
2019-05-02T21:38:42.551Z,100.00
2019-05-02T21:41:11.101Z,100.00
2019-05-02T21:43:39.365Z,100.00
2019-05-02T21:46:07.747Z,100.00
2019-05-02T21:48:36.210Z,100.00
2019-05-02T21:51:08.622Z,100.00
2019-05-02T21:53:58.417Z,100.00
2019-05-02T21:56:28.088Z,100.00
2019-05-02T21:59:07.035Z,100.00
2019-05-02T22:01:38.523Z,100.00
2019-05-02T22:04:07.055Z,100.00
2019-05-02T22:06:35.334Z,100.00
2019-05-02T22:09:05.786Z,100.00
2019-05-02T22:11:34.165Z,100.00
2019-05-02T22:14:02.545Z,100.00
2019-05-02T22:16:32.574Z,100.00
2019-05-02T22:19:02.689Z,100.00
2019-05-02T22:21:32.393Z,100.00
2019-05-02T22:24:09.002Z,100.00
2019-05-02T22:26:32.708Z,100.00
2019-05-02T22:29:01.929Z,100.00
2019-05-02T22:31:32.198Z,100.00
2019-05-02T22:34:02.154Z,100.00
2019-05-02T22:36:32.663Z,100.00
2019-05-02T22:39:04.980Z,100.00
2019-05-02T22:41:33.287Z,100.00
2019-05-02T22:44:01.991Z,100.00
2019-05-02T22:46:43.942Z,100.00
2019-05-02T22:49:14.746Z,100.00
2019-05-02T22:51:43.025Z,100.00
2019-05-02T22:54:23.397Z,100.00
2019-05-02T22:56:42.657Z,100.00
2019-05-02T22:59:11.160Z,100.00
2019-05-02T23:01:39.446Z,100.00
2019-05-02T23:04:07.739Z,100.00
2019-05-02T23:06:36.040Z,100.00
2019-05-02T23:09:06.990Z,100.00
2019-05-02T23:11:35.383Z,100.00
2019-05-02T23:14:04.303Z,100.00
2019-05-02T23:16:34.626Z,100.00
2019-05-02T23:19:03.023Z,100.00
2019-05-02T23:21:32.525Z,100.00
2019-05-02T23:24:02.658Z,100.00
2019-05-02T23:26:44.463Z,100.00
2019-05-02T23:29:14.430Z,100.00
2019-05-02T23:31:42.711Z,100.00
2019-05-02T23:34:11.071Z,100.00
2019-05-02T23:36:41.657Z,100.00
2019-05-02T23:39:10.086Z,100.00
2019-05-02T23:41:39.013Z,100.00
2019-05-02T23:44:07.390Z,100.00
2019-05-02T23:46:35.672Z,100.00
2019-05-02T23:49:03.974Z,100.00
2019-05-02T23:51:32.266Z,100.00
2019-05-02T23:54:02.138Z,100.00
2019-05-02T23:56:32.497Z,100.00
2019-05-02T23:59:02.565Z,100.00
